Time;durP1;ratioP1;P1;durP2;ratioP2;P2;SDS_P1;SDS_P2;PMS_P1;PMS_P2;Temp;Humidity;BMP_temperature;BMP_pressure;BME280_temperature;BME280_humidity;BME280_pressure;Samples;Min_cycle;Max_cycle;Signal;HPM_P1;HPM_P2
2022/03/20 00:00:29;;;;;;;10.07;3.85;;;;;;;-148.23;100.00;61223.13;4952033;28;20109;-68
2022/03/20 00:02:55;;;;;;;18.23;4.88;;;;;;;-148.23;100.00;61223.13;4959788;28;20035;-69
2022/03/20 00:05:20;;;;;;;12.95;4.75;;;;;;;-148.23;100.00;61223.13;4957852;28;20124;-69
2022/03/20 00:07:46;;;;;;;10.23;4.97;;;;;;;-148.23;100.00;61223.13;4961601;28;20497;-69
2022/03/20 00:10:12;;;;;;;17.33;5.25;;;;;;;-148.23;100.00;61223.13;4949400;28;20401;-69
2022/03/20 00:12:38;;;;;;;15.30;6.53;;;;;;;-148.23;100.00;61223.13;4954887;28;20069;-69
2022/03/20 00:15:04;;;;;;;12.60;5.60;;;;;;;-148.23;100.00;61223.13;4972663;28;20593;-68
2022/03/20 00:17:30;;;;;;;20.05;6.03;;;;;;;-148.23;100.00;61223.13;4958020;28;20142;-69
2022/03/20 00:19:56;;;;;;;16.90;5.47;;;;;;;-148.23;100.00;61223.13;4962405;28;20469;-69
2022/03/20 00:22:22;;;;;;;14.27;6.43;;;;;;;-148.23;100.00;61223.13;4962333;28;20067;-69
2022/03/20 00:24:47;;;;;;;18.52;7.07;;;;;;;-148.23;100.00;61223.13;4966218;28;20031;-69
2022/03/20 00:27:14;;;;;;;15.35;7.00;;;;;;;-148.23;100.00;61223.13;4968850;28;20049;-69
2022/03/20 00:29:39;;;;;;;12.88;6.55;;;;;;;-148.23;100.00;61223.13;4975666;28;20748;-69
2022/03/20 00:32:06;;;;;;;16.45;6.65;;;;;;;-148.23;100.00;61223.13;4962548;28;20130;-69
2022/03/20 00:34:31;;;;;;;20.20;8.18;;;;;;;-148.23;100.00;61223.13;4967594;28;20034;-69
2022/03/20 00:36:56;;;;;;;14.23;6.88;;;;;;;-148.23;100.00;61223.13;4957048;28;20130;-69
2022/03/20 00:39:22;;;;;;;17.80;7.50;;;;;;;-148.23;100.00;61223.13;4961762;28;20052;-69
2022/03/20 00:41:47;;;;;;;20.63;8.10;;;;;;;-148.23;100.00;61223.13;4962649;28;20474;-69
2022/03/20 00:44:13;;;;;;;24.55;8.23;;;;;;;-148.23;100.00;61223.13;4965924;28;20540;-69
2022/03/20 00:46:38;;;;;;;23.85;9.95;;;;;;;-148.23;100.00;61223.13;4959855;28;20027;-68
2022/03/20 00:49:03;;;;;;;23.33;10.73;;;;;;;-148.23;100.00;61223.13;4964944;28;20026;-69
2022/03/20 00:51:28;;;;;;;20.65;9.35;;;;;;;-148.23;100.00;61223.13;4975465;28;20359;-70
2022/03/20 00:53:54;;;;;;;32.25;11.38;;;;;;;-148.23;100.00;61223.13;4961352;28;20031;-69
2022/03/20 00:56:19;;;;;;;25.20;12.43;;;;;;;-148.23;100.00;61223.13;4956420;28;20042;-69
2022/03/20 00:58:46;;;;;;;34.38;12.68;;;;;;;-148.23;100.00;61223.13;4955047;28;20045;-69
2022/03/20 01:01:13;;;;;;;29.95;12.88;;;;;;;-148.23;100.00;61223.13;4962460;28;20035;-68
2022/03/20 01:03:38;;;;;;;32.65;14.20;;;;;;;-148.23;100.00;61223.13;4961372;28;20034;-69
2022/03/20 01:06:07;;;;;;;43.20;15.98;;;;;;;-148.23;100.00;61223.13;4960266;28;20030;-69
2022/03/20 01:08:34;;;;;;;26.52;13.02;;;;;;;-148.23;100.00;61223.13;4961400;28;20065;-69
2022/03/20 01:11:00;;;;;;;37.42;14.73;;;;;;;-148.23;100.00;61223.13;4963684;28;20031;-68
2022/03/20 01:13:25;;;;;;;40.85;16.80;;;;;;;-148.23;100.00;61223.13;4959605;28;20031;-69
2022/03/20 01:15:50;;;;;;;40.83;17.55;;;;;;;-148.23;100.00;61223.13;4956239;28;20023;-69
2022/03/20 01:18:16;;;;;;;45.97;19.08;;;;;;;-148.23;100.00;61223.13;4958119;28;20038;-69
2022/03/20 01:20:41;;;;;;;41.78;15.23;;;;;;;-148.23;100.00;61223.13;4960917;28;20066;-69
2022/03/20 01:23:06;;;;;;;39.75;16.20;;;;;;;-148.23;100.00;61223.13;4958545;28;20030;-69
2022/03/20 01:25:32;;;;;;;36.55;16.35;;;;;;;-148.23;100.00;61223.13;4957282;28;20030;-69
2022/03/20 01:27:58;;;;;;;39.72;18.17;;;;;;;-148.23;100.00;61223.13;4961062;28;20031;-69
2022/03/20 01:30:23;;;;;;;39.83;16.73;;;;;;;-148.23;100.00;61223.13;4953608;28;20030;-69
2022/03/20 01:32:48;;;;;;;38.38;16.58;;;;;;;-148.23;100.00;61223.13;4961243;28;20034;-69
2022/03/20 01:35:14;;;;;;;47.95;18.75;;;;;;;-148.23;100.00;61223.13;4951068;28;20172;-68
2022/03/20 01:37:41;;;;;;;38.60;17.48;;;;;;;-148.23;100.00;61223.13;4979657;28;20033;-70
2022/03/20 01:40:07;;;;;;;43.17;16.30;;;;;;;-148.23;100.00;61223.13;4962455;28;20149;-69
2022/03/20 01:42:33;;;;;;;31.95;14.45;;;;;;;-148.23;100.00;61223.13;4977865;28;20363;-69
2022/03/20 01:44:58;;;;;;;37.10;14.65;;;;;;;-148.23;100.00;61223.13;4964446;28;20043;-70
2022/03/20 01:47:23;;;;;;;34.33;16.92;;;;;;;-148.23;100.00;61223.13;4961828;28;20385;-68
2022/03/20 01:49:49;;;;;;;37.15;17.88;;;;;;;-148.23;100.00;61223.13;4962276;28;20501;-69
2022/03/20 01:52:15;;;;;;;35.97;15.40;;;;;;;-148.23;100.00;61223.13;4962359;28;20164;-69
2022/03/20 01:54:44;;;;;;;44.85;16.77;;;;;;;-148.23;100.00;61223.13;4961146;28;20023;-70
2022/03/20 01:57:13;;;;;;;45.38;18.10;;;;;;;-148.23;100.00;61223.13;4965008;28;20034;-69
2022/03/20 01:59:38;;;;;;;43.72;18.15;;;;;;;-148.23;100.00;61223.13;4960962;28;20360;-70
2022/03/20 02:02:04;;;;;;;43.30;16.55;;;;;;;-148.23;100.00;61223.13;4958157;28;20202;-69
2022/03/20 02:04:30;;;;;;;46.15;17.52;;;;;;;-148.23;100.00;61223.13;4952899;28;20469;-69
2022/03/20 02:06:56;;;;;;;35.88;16.77;;;;;;;-148.23;100.00;61223.13;4941643;28;20045;-69
2022/03/20 02:09:21;;;;;;;40.92;15.63;;;;;;;-148.23;100.00;61223.13;4948047;28;20085;-69
2022/03/20 02:11:47;;;;;;;37.28;16.17;;;;;;;-148.23;100.00;61223.13;4961120;28;20117;-69
2022/03/20 02:14:13;;;;;;;40.05;17.98;;;;;;;-148.23;100.00;61223.13;4961196;28;20022;-69
2022/03/20 02:16:38;;;;;;;39.72;15.98;;;;;;;-148.23;100.00;61223.13;4974873;28;20481;-70
2022/03/20 02:19:07;;;;;;;51.60;18.20;;;;;;;-148.23;100.00;61223.13;4975717;28;20389;-69
2022/03/20 02:21:43;;;;;;;39.50;16.50;;;;;;;-148.23;100.00;61223.13;4958926;28;20023;-71
2022/03/20 02:24:41;;;;;;;41.47;17.10;;;;;;;-148.23;100.00;61223.13;4977582;28;20477;-69
2022/03/20 02:27:18;;;;;;;39.83;17.02;;;;;;;-148.23;100.00;61223.13;4976808;28;20038;-69
2022/03/20 02:29:54;;;;;;;43.45;18.65;;;;;;;-148.23;100.00;61223.13;4964632;28;20026;-70
2022/03/20 02:32:27;;;;;;;51.22;18.48;;;;;;;-148.23;100.00;61223.13;4958699;28;20170;-69
2022/03/20 02:34:53;;;;;;;42.72;18.17;;;;;;;-148.23;100.00;61223.13;4970561;28;20131;-69
2022/03/20 02:37:21;;;;;;;47.28;19.67;;;;;;;-148.23;100.00;61223.13;4978448;28;20064;-69
2022/03/20 02:39:47;;;;;;;47.60;19.17;;;;;;;-148.23;100.00;61223.13;4978641;28;20043;-69
2022/03/20 02:42:14;;;;;;;48.55;18.88;;;;;;;-148.23;100.00;61223.13;4962041;28;20065;-69
2022/03/20 02:44:56;;;;;;;40.40;19.95;;;;;;;-148.23;100.00;61223.13;4968455;28;20031;-69
2022/03/20 02:47:23;;;;;;;55.08;22.15;;;;;;;-148.23;100.00;61223.13;4974038;28;20218;-70
2022/03/20 02:50:17;;;;;;;50.00;22.20;;;;;;;-148.23;100.00;61223.13;4960785;28;20035;-69
2022/03/20 02:52:52;;;;;;;42.75;18.60;;;;;;;-148.23;100.00;61223.13;4964562;28;20043;-69
2022/03/20 02:55:22;;;;;;;46.00;19.85;;;;;;;-148.23;100.00;61223.13;4966478;28;20128;-69
2022/03/20 02:57:48;;;;;;;48.10;19.65;;;;;;;-148.23;100.00;61223.13;4960576;28;20109;-69
2022/03/20 03:00:17;;;;;;;45.80;19.55;;;;;;;-148.23;100.00;61223.13;4956062;28;20133;-69
2022/03/20 03:02:43;;;;;;;51.25;19.65;;;;;;;-148.23;100.00;61223.13;4972986;28;20058;-69
2022/03/20 03:05:10;;;;;;;51.17;20.05;;;;;;;-148.23;100.00;61223.13;4959119;28;20057;-69
2022/03/20 03:13:10;;;;;;;55.22;21.77;;;;;;;-148.23;100.00;61223.13;4963958;28;20041;-69
2022/03/20 03:15:35;;;;;;;57.65;21.63;;;;;;;-148.23;100.00;61223.13;4961840;28;20300;-69
2022/03/20 03:18:01;;;;;;;51.25;21.08;;;;;;;-148.23;100.00;61223.13;4961249;28;20039;-69
2022/03/20 03:20:26;;;;;;;51.38;20.00;;;;;;;-148.23;100.00;61223.13;4979364;28;20034;-69
2022/03/20 03:22:52;;;;;;;51.85;19.60;;;;;;;-148.23;100.00;61223.13;4959039;28;20444;-69
2022/03/20 03:25:17;;;;;;;48.08;20.95;;;;;;;-148.23;100.00;61223.13;4969469;28;20205;-69
2022/03/20 03:27:43;;;;;;;51.78;20.27;;;;;;;-148.23;100.00;61223.13;4958292;28;20038;-69
2022/03/20 03:30:08;;;;;;;47.17;20.48;;;;;;;-148.23;100.00;61223.13;4957187;28;20092;-69
2022/03/20 03:32:34;;;;;;;49.35;21.73;;;;;;;-148.23;100.00;61223.13;4959459;28;20533;-69
2022/03/20 03:37:44;;;;;;;47.13;18.48;;;;;;;-148.23;100.00;61223.13;4957635;28;20781;-69
2022/03/20 03:40:09;;;;;;;49.63;20.05;;;;;;;-148.23;100.00;61223.13;4958118;28;20034;-68
2022/03/20 03:42:36;;;;;;;44.15;18.45;;;;;;;-148.23;100.00;61223.13;4960041;28;20041;-68
2022/03/20 03:45:04;;;;;;;51.30;20.02;;;;;;;-148.23;100.00;61223.13;4956687;28;20033;-68
2022/03/20 03:47:30;;;;;;;45.58;20.33;;;;;;;-148.23;100.00;61223.13;4958530;28;20967;-69
2022/03/20 03:49:56;;;;;;;50.50;21.20;;;;;;;-148.23;100.00;61223.13;4956073;28;20121;-69
2022/03/20 03:52:21;;;;;;;42.20;18.38;;;;;;;-148.23;100.00;61223.13;4959723;28;20608;-69
2022/03/20 03:54:47;;;;;;;43.55;16.92;;;;;;;-148.23;100.00;61223.13;4953529;28;20030;-69
2022/03/20 03:57:12;;;;;;;39.15;17.27;;;;;;;-148.23;100.00;61223.13;4954805;28;20023;-69
2022/03/20 03:59:37;;;;;;;52.38;19.08;;;;;;;-148.23;100.00;61223.13;4968803;28;20507;-70
2022/03/20 04:02:03;;;;;;;50.80;18.73;;;;;;;-148.23;100.00;61223.13;4954218;28;20206;-69
2022/03/20 04:04:29;;;;;;;43.58;17.52;;;;;;;-148.23;100.00;61223.13;4954186;28;20444;-69
2022/03/20 04:06:54;;;;;;;45.80;17.40;;;;;;;-148.23;100.00;61223.13;4959130;28;20137;-69
2022/03/20 04:09:20;;;;;;;47.65;18.25;;;;;;;-148.23;100.00;61223.13;4958183;28;20477;-69
2022/03/20 04:11:45;;;;;;;43.92;16.33;;;;;;;-148.23;100.00;61223.13;4953998;28;20043;-68
2022/03/20 04:14:11;;;;;;;49.13;20.73;;;;;;;-148.23;100.00;61223.13;4953601;28;20366;-69
2022/03/20 04:16:36;;;;;;;45.17;18.30;;;;;;;-148.23;100.00;61223.13;4954375;28;20105;-69
2022/03/20 04:19:01;;;;;;;45.25;18.02;;;;;;;-148.23;100.00;61223.13;4960759;28;20465;-69
2022/03/20 04:21:27;;;;;;;43.45;19.10;;;;;;;-148.23;100.00;61223.13;4960007;28;20039;-69
2022/03/20 04:23:52;;;;;;;48.60;20.10;;;;;;;-148.23;100.00;61223.13;4956913;28;20035;-69
2022/03/20 04:26:21;;;;;;;39.70;16.08;;;;;;;-148.23;100.00;61223.13;4959111;28;20062;-69
2022/03/20 04:28:47;;;;;;;50.58;18.88;;;;;;;-148.23;100.00;61223.13;4974085;28;20035;-69
2022/03/20 04:31:16;;;;;;;41.28;16.95;;;;;;;-148.23;100.00;61223.13;4959995;28;20030;-68
2022/03/20 04:33:42;;;;;;;47.80;16.27;;;;;;;-148.23;100.00;61223.13;4961033;28;20137;-68
2022/03/20 04:36:09;;;;;;;39.35;15.45;;;;;;;-148.23;100.00;61223.13;4959253;28;20367;-68
2022/03/20 04:38:35;;;;;;;47.85;17.58;;;;;;;-148.23;100.00;61223.13;4960993;28;20026;-68
2022/03/20 04:41:00;;;;;;;38.35;16.73;;;;;;;-148.23;100.00;61223.13;4961319;28;20280;-69
2022/03/20 04:43:27;;;;;;;49.22;18.45;;;;;;;-148.23;100.00;61223.13;4962581;28;20144;-69
2022/03/20 04:45:53;;;;;;;45.33;20.30;;;;;;;-148.23;100.00;61223.13;4959888;28;20563;-68
2022/03/20 04:59:14;;;;;;;38.30;17.15;;;;;;;-148.23;100.00;61223.13;4954039;28;20089;-68
2022/03/20 05:01:39;;;;;;;53.13;18.42;;;;;;;-148.23;100.00;61223.13;4954663;28;20429;-68
2022/03/20 05:04:05;;;;;;;44.63;18.20;;;;;;;-148.23;100.00;61223.13;4958873;28;20453;-68
2022/03/20 05:06:30;;;;;;;43.97;20.45;;;;;;;-148.23;100.00;61223.13;4967063;28;20037;-69
2022/03/20 05:13:19;;;;;;;47.78;20.92;;;;;;;-148.23;100.00;61223.13;4964019;28;20529;-69
2022/03/20 05:14:25;;;;;;;47.33;19.48;;;;;;;-148.23;100.00;61223.13;4979161;28;20041;-69
2022/03/20 05:16:52;;;;;;;43.92;18.33;;;;;;;-148.23;100.00;61223.13;4970349;28;20039;-68
2022/03/20 05:19:19;;;;;;;52.35;20.80;;;;;;;-148.23;100.00;61223.13;4956195;28;20374;-68
2022/03/20 05:21:44;;;;;;;52.53;20.05;;;;;;;-148.23;100.00;61223.13;4967701;28;20043;-69
2022/03/20 05:24:13;;;;;;;48.67;19.90;;;;;;;-148.23;100.00;61223.13;4966903;28;20038;-68
2022/03/20 05:26:38;;;;;;;47.10;19.92;;;;;;;-148.23;100.00;61223.13;4965502;28;20031;-68
2022/03/20 05:29:04;;;;;;;53.28;23.45;;;;;;;-148.23;100.00;61223.13;4968192;28;20070;-69
2022/03/20 05:31:30;;;;;;;44.83;21.00;;;;;;;-148.23;100.00;61223.13;4965432;28;20082;-68
2022/03/20 05:33:55;;;;;;;45.35;21.27;;;;;;;-148.23;100.00;61223.13;4978226;28;20129;-68
2022/03/20 05:36:20;;;;;;;48.75;20.90;;;;;;;-148.23;100.00;61223.13;4973072;28;20031;-69
2022/03/20 05:38:46;;;;;;;51.67;20.70;;;;;;;-148.23;100.00;61223.13;4960878;28;20154;-68
2022/03/20 05:43:55;;;;;;;53.45;20.95;;;;;;;-148.23;100.00;61223.13;4952799;28;20062;-68
2022/03/20 05:46:20;;;;;;;51.60;21.50;;;;;;;-148.23;100.00;61223.13;4957417;28;20464;-68
2022/03/20 05:48:46;;;;;;;47.15;21.65;;;;;;;-148.23;100.00;61223.13;4955856;28;20141;-69
2022/03/20 05:51:15;;;;;;;48.25;19.95;;;;;;;-148.23;100.00;61223.13;4957762;28;20038;-69
2022/03/20 05:53:40;;;;;;;54.20;21.75;;;;;;;-148.23;100.00;61223.13;4970244;28;20039;-69
2022/03/20 05:58:49;;;;;;;48.22;19.33;;;;;;;-148.23;100.00;61223.13;4972118;28;20049;-69
2022/03/20 06:01:15;;;;;;;42.80;16.92;;;;;;;-148.23;100.00;61223.13;4959395;28;20063;-68
2022/03/20 06:03:41;;;;;;;57.13;21.55;;;;;;;-148.23;100.00;61223.13;4951614;28;20034;-68
2022/03/20 06:06:07;;;;;;;44.03;19.50;;;;;;;-148.23;100.00;61223.13;4959803;28;20054;-68
2022/03/20 06:08:35;;;;;;;56.42;20.98;;;;;;;-148.23;100.00;61223.13;4959424;28;20130;-68
2022/03/20 06:11:00;;;;;;;63.22;23.27;;;;;;;-148.23;100.00;61223.13;4954030;28;20066;-69
2022/03/20 06:13:27;;;;;;;45.40;19.48;;;;;;;-148.23;100.00;61223.13;4957376;28;20034;-69
2022/03/20 06:15:52;;;;;;;47.80;19.48;;;;;;;-148.23;100.00;61223.13;4956691;28;20041;-68
2022/03/20 06:18:18;;;;;;;49.80;22.08;;;;;;;-148.23;100.00;61223.13;4961096;28;20031;-69
2022/03/20 06:20:44;;;;;;;50.60;19.98;;;;;;;-148.23;100.00;61223.13;4954687;28;20026;-69
2022/03/20 06:23:09;;;;;;;51.08;21.50;;;;;;;-148.23;100.00;61223.13;4957758;28;22077;-68
2022/03/20 06:25:34;;;;;;;51.90;21.48;;;;;;;-148.23;100.00;61223.13;4969594;28;20031;-68
2022/03/20 06:28:01;;;;;;;44.08;19.30;;;;;;;-148.23;100.00;61223.13;4955661;28;20426;-68
2022/03/20 06:30:27;;;;;;;51.38;20.98;;;;;;;-148.23;100.00;61223.13;4957359;28;20244;-69
2022/03/20 06:32:52;;;;;;;54.42;21.75;;;;;;;-148.23;100.00;61223.13;4972589;28;20066;-69
2022/03/20 06:35:18;;;;;;;46.63;20.73;;;;;;;-148.23;100.00;61223.13;4958998;28;20027;-69
2022/03/20 06:37:45;;;;;;;51.80;20.85;;;;;;;-148.23;100.00;61223.13;4960852;28;20035;-68
2022/03/20 06:40:12;;;;;;;42.72;19.50;;;;;;;-148.23;100.00;61223.13;4958866;28;20034;-69
2022/03/20 06:42:38;;;;;;;48.47;21.77;;;;;;;-148.23;100.00;61223.13;4954876;28;21574;-69
2022/03/20 06:45:06;;;;;;;45.90;19.10;;;;;;;-148.23;100.00;61223.13;4956838;28;20432;-68
2022/03/20 06:47:32;;;;;;;48.25;20.63;;;;;;;-148.23;100.00;61223.13;4961582;28;20046;-68
2022/03/20 06:50:01;;;;;;;41.47;20.63;;;;;;;-148.23;100.00;61223.13;4958905;28;20146;-69
2022/03/20 06:52:30;;;;;;;57.58;20.50;;;;;;;-148.23;100.00;61223.13;4971844;28;20038;-68
2022/03/20 06:54:57;;;;;;;47.05;20.75;;;;;;;-148.23;100.00;61223.13;4962375;28;20034;-68
2022/03/20 06:57:23;;;;;;;43.92;19.50;;;;;;;-148.23;100.00;61223.13;4958191;28;20129;-68
2022/03/20 06:59:48;;;;;;;44.65;20.45;;;;;;;-148.23;100.00;61223.13;4961870;28;20035;-68
2022/03/20 07:02:15;;;;;;;50.55;21.38;;;;;;;-148.23;100.00;61223.13;4971643;28;20101;-68
2022/03/20 07:04:41;;;;;;;49.08;19.55;;;;;;;-148.23;100.00;61223.13;4962041;28;20039;-68
2022/03/20 07:07:06;;;;;;;48.65;21.85;;;;;;;-148.23;100.00;61223.13;4973504;28;20033;-68
2022/03/20 07:09:31;;;;;;;47.75;20.67;;;;;;;-148.23;100.00;61223.13;4960723;28;20592;-68
2022/03/20 07:11:57;;;;;;;40.28;19.75;;;;;;;-148.23;100.00;61223.13;4959820;28;20039;-68
2022/03/20 07:14:22;;;;;;;45.75;20.73;;;;;;;-148.23;100.00;61223.13;4955887;28;20054;-68
2022/03/20 07:16:48;;;;;;;49.08;20.75;;;;;;;-148.23;100.00;61223.13;4960774;28;20528;-68
2022/03/20 07:19:13;;;;;;;46.97;20.98;;;;;;;-148.23;100.00;61223.13;4942964;28;20041;-69
2022/03/20 07:21:40;;;;;;;40.63;19.02;;;;;;;-148.23;100.00;61223.13;4961818;28;20062;-69
2022/03/20 07:24:05;;;;;;;53.20;21.33;;;;;;;-148.23;100.00;61223.13;4958015;28;20035;-69
2022/03/20 07:29:30;;;;;;;44.78;21.45;;;;;;;-148.23;100.00;61223.13;4957868;28;20128;-69
2022/03/20 07:31:57;;;;;;;43.67;19.10;;;;;;;-148.23;100.00;61223.13;4956177;28;20038;-68
2022/03/20 07:34:23;;;;;;;45.17;19.55;;;;;;;-148.23;100.00;61223.13;4962755;28;20540;-68
2022/03/20 07:36:49;;;;;;;48.78;20.90;;;;;;;-148.23;100.00;61223.13;4961225;28;20031;-68
2022/03/20 07:39:14;;;;;;;38.00;18.33;;;;;;;-148.23;100.00;61223.13;4955893;28;20580;-68
2022/03/20 07:41:40;;;;;;;46.28;18.30;;;;;;;-148.23;100.00;61223.13;4956635;28;20034;-72
2022/03/20 07:44:05;;;;;;;46.38;22.70;;;;;;;-148.23;100.00;61223.13;4956958;28;20054;-68
2022/03/20 07:46:31;;;;;;;49.28;20.15;;;;;;;-148.23;100.00;61223.13;4960760;28;20074;-68
2022/03/20 07:48:58;;;;;;;42.78;21.05;;;;;;;-148.23;100.00;61223.13;4955084;28;20434;-68
2022/03/20 07:51:23;;;;;;;41.50;20.00;;;;;;;-148.23;100.00;61223.13;4968846;28;20034;-68
2022/03/20 07:53:50;;;;;;;48.47;22.48;;;;;;;-148.23;100.00;61223.13;4954678;28;20035;-68
2022/03/20 07:56:18;;;;;;;55.78;19.90;;;;;;;-148.23;100.00;61223.13;4955885;28;20508;-68
2022/03/20 07:58:43;;;;;;;42.55;20.35;;;;;;;-148.23;100.00;61223.13;4956903;28;20026;-68
2022/03/20 08:01:10;;;;;;;43.00;19.40;;;;;;;-148.23;100.00;61223.13;4958170;28;20027;-68
2022/03/20 08:03:35;;;;;;;40.58;17.98;;;;;;;-148.23;100.00;61223.13;4951851;28;20081;-68
2022/03/20 08:06:00;;;;;;;44.75;20.55;;;;;;;-148.23;100.00;61223.13;4958295;28;20034;-69
2022/03/20 08:08:26;;;;;;;45.95;20.20;;;;;;;-148.23;100.00;61223.13;4971401;28;20038;-68
2022/03/20 08:10:51;;;;;;;50.80;21.95;;;;;;;-148.23;100.00;61223.13;4958106;28;20426;-68
2022/03/20 08:13:17;;;;;;;48.10;19.48;;;;;;;-148.23;100.00;61223.13;4959485;28;20027;-68
2022/03/20 08:15:43;;;;;;;42.35;20.35;;;;;;;-148.23;100.00;61223.13;4957983;28;20113;-68
2022/03/20 08:18:08;;;;;;;46.30;22.73;;;;;;;-148.23;100.00;61223.13;4958220;28;20031;-68
2022/03/20 08:20:34;;;;;;;48.63;19.67;;;;;;;-148.23;100.00;61223.13;4954404;28;20045;-68
2022/03/20 08:23:00;;;;;;;47.78;22.55;;;;;;;-148.23;100.00;61223.13;4947847;28;20379;-68
2022/03/20 08:25:26;;;;;;;42.88;18.33;;;;;;;-148.23;100.00;61223.13;4954227;28;20482;-68
2022/03/20 08:27:53;;;;;;;47.05;19.70;;;;;;;-148.23;100.00;61223.13;4954245;28;20050;-68
2022/03/20 08:30:19;;;;;;;45.42;24.25;;;;;;;-148.23;100.00;61223.13;4955627;28;20030;-68
2022/03/20 08:32:47;;;;;;;41.30;18.60;;;;;;;-148.23;100.00;61223.13;4959724;28;20033;-68
2022/03/20 08:35:14;;;;;;;50.00;24.13;;;;;;;-148.23;100.00;61223.13;4960147;28;20137;-69
2022/03/20 08:37:43;;;;;;;43.83;18.92;;;;;;;-148.23;100.00;61223.13;4956911;28;20041;-69
2022/03/20 08:40:15;;;;;;;42.63;19.55;;;;;;;-148.23;100.00;61223.13;4957605;28;20249;-69
2022/03/20 08:42:59;;;;;;;49.40;22.70;;;;;;;-148.23;100.00;61223.13;4958230;28;20512;-69
2022/03/20 08:45:29;;;;;;;44.67;19.20;;;;;;;-148.23;100.00;61223.13;4961769;28;20038;-68
2022/03/20 08:47:55;;;;;;;44.10;19.50;;;;;;;-148.23;100.00;61223.13;4960570;28;20042;-68
2022/03/20 08:50:20;;;;;;;45.35;18.73;;;;;;;-148.23;100.00;61223.13;4960141;28;20548;-70
2022/03/20 08:52:46;;;;;;;44.22;21.23;;;;;;;-148.23;100.00;61223.13;4975008;28;20487;-69
2022/03/20 08:55:12;;;;;;;47.00;19.17;;;;;;;-148.23;100.00;61223.13;4959620;28;20517;-70
2022/03/20 08:57:42;;;;;;;43.65;20.27;;;;;;;-148.23;100.00;61223.13;4959973;28;20035;-70
2022/03/20 09:00:09;;;;;;;45.45;20.65;;;;;;;-148.23;100.00;61223.13;4957510;28;20031;-69
2022/03/20 09:02:36;;;;;;;47.10;19.80;;;;;;;-148.23;100.00;61223.13;4956601;28;20047;-68
2022/03/20 09:05:02;;;;;;;46.60;21.73;;;;;;;-148.23;100.00;61223.13;4958215;28;20505;-68
2022/03/20 09:07:28;;;;;;;46.35;20.02;;;;;;;-148.23;100.00;61223.13;4960357;28;20035;-68
2022/03/20 09:09:53;;;;;;;41.42;19.58;;;;;;;-148.23;100.00;61223.13;4975194;28;20567;-68
2022/03/20 09:12:18;;;;;;;40.15;18.95;;;;;;;-148.23;100.00;61223.13;4960086;28;20031;-69
2022/03/20 09:14:45;;;;;;;51.17;20.98;;;;;;;-148.23;100.00;61223.13;4958052;28;20101;-69
2022/03/20 09:19:59;;;;;;;41.50;18.98;;;;;;;-148.23;100.00;61223.13;4957571;28;20503;-69
2022/03/20 09:22:26;;;;;;;48.85;21.52;;;;;;;-148.23;100.00;61223.13;4960061;28;20489;-69
2022/03/20 09:24:52;;;;;;;45.90;20.17;;;;;;;-148.23;100.00;61223.13;4960170;28;20031;-69
2022/03/20 09:27:17;;;;;;;46.10;20.90;;;;;;;-148.23;100.00;61223.13;4961821;28;20060;-69
2022/03/20 09:29:42;;;;;;;43.38;19.55;;;;;;;-148.23;100.00;61223.13;4956911;28;20368;-69
2022/03/20 09:32:08;;;;;;;53.33;22.92;;;;;;;-148.23;100.00;61223.13;4973953;28;20126;-69
2022/03/20 09:34:34;;;;;;;44.70;20.20;;;;;;;-148.23;100.00;61223.13;4977346;28;20033;-69
2022/03/20 09:37:00;;;;;;;47.58;20.95;;;;;;;-148.23;100.00;61223.13;4963003;28;20030;-68
2022/03/20 09:39:26;;;;;;;45.50;18.38;;;;;;;-148.23;100.00;61223.13;4974912;28;20374;-68
2022/03/20 09:41:54;;;;;;;46.22;21.38;;;;;;;-148.23;100.00;61223.13;4971662;28;20031;-69
2022/03/20 09:44:23;;;;;;;49.38;21.65;;;;;;;-148.23;100.00;61223.13;4940065;28;20109;-68
2022/03/20 09:46:48;;;;;;;52.67;23.23;;;;;;;-148.23;100.00;61223.13;4978264;28;20585;-69
2022/03/20 09:49:16;;;;;;;52.03;25.45;;;;;;;-148.23;100.00;61223.13;4971300;28;20039;-69
2022/03/20 09:51:42;;;;;;;43.30;20.15;;;;;;;-148.23;100.00;61223.13;4958467;28;20034;-68
2022/03/20 09:54:08;;;;;;;46.53;21.75;;;;;;;-148.23;100.00;61223.13;4958003;28;20322;-68
2022/03/20 09:56:34;;;;;;;52.42;23.75;;;;;;;-148.23;100.00;61223.13;4956033;28;20636;-69
2022/03/20 09:58:59;;;;;;;51.03;23.60;;;;;;;-148.23;100.00;61223.13;4957690;28;20484;-69
2022/03/20 10:01:24;;;;;;;47.55;22.15;;;;;;;-148.23;100.00;61223.13;4955796;28;20045;-68
2022/03/20 10:04:06;;;;;;;50.17;26.45;;;;;;;-148.23;100.00;61223.13;4960526;28;20058;-68
2022/03/20 10:06:35;;;;;;;47.08;21.30;;;;;;;-148.23;100.00;61223.13;4957332;28;20027;-68
2022/03/20 10:09:12;;;;;;;47.08;22.65;;;;;;;-148.23;100.00;61223.13;4973904;28;20062;-70
2022/03/20 10:11:47;;;;;;;53.47;23.23;;;;;;;-148.23;100.00;61223.13;4954944;28;20047;-68
2022/03/20 10:14:19;;;;;;;49.08;22.88;;;;;;;-148.23;100.00;61223.13;4961223;28;20247;-69
2022/03/20 10:16:49;;;;;;;45.05;21.40;;;;;;;-148.23;100.00;61223.13;4973155;28;20078;-70
2022/03/20 10:19:23;;;;;;;55.05;27.48;;;;;;;-148.23;100.00;61223.13;4959830;28;20039;-69
2022/03/20 10:21:53;;;;;;;50.67;22.88;;;;;;;-148.23;100.00;61223.13;4958940;28;20029;-69
2022/03/20 10:24:21;;;;;;;44.70;20.33;;;;;;;-148.23;100.00;61223.13;4959707;28;20042;-69
2022/03/20 10:27:03;;;;;;;50.80;22.00;;;;;;;-148.23;100.00;61223.13;4961234;28;20070;-69
2022/03/20 10:29:31;;;;;;;50.80;22.15;;;;;;;-148.23;100.00;61223.13;4959501;28;20101;-69
2022/03/20 10:31:59;;;;;;;55.72;23.95;;;;;;;-148.23;100.00;61223.13;4958699;28;20035;-68
2022/03/20 10:34:25;;;;;;;53.50;27.73;;;;;;;-148.23;100.00;61223.13;4962935;28;20057;-69
2022/03/20 10:36:51;;;;;;;60.30;33.35;;;;;;;-148.23;100.00;61223.13;4964949;28;20031;-69
2022/03/20 10:39:19;;;;;;;51.92;24.67;;;;;;;-148.23;100.00;61223.13;4960089;28;20035;-69
2022/03/20 10:41:46;;;;;;;55.58;27.45;;;;;;;-148.23;100.00;61223.13;4962744;28;20058;-69
2022/03/20 10:44:18;;;;;;;57.33;29.38;;;;;;;-148.23;100.00;61223.13;4976724;28;20046;-69
2022/03/20 10:46:58;;;;;;;45.17;21.73;;;;;;;-148.23;100.00;61223.13;4961653;28;20077;-69
2022/03/20 10:49:23;;;;;;;51.60;24.27;;;;;;;-148.23;100.00;61223.13;4961003;28;20041;-69
2022/03/20 10:52:03;;;;;;;63.85;34.72;;;;;;;-148.23;100.00;61223.13;4961740;28;20039;-69
2022/03/20 10:54:50;;;;;;;70.45;35.08;;;;;;;-148.23;100.00;61223.13;4951861;28;20030;-69
2022/03/20 10:57:15;;;;;;;65.53;38.13;;;;;;;-148.23;100.00;61223.13;4958792;28;20045;-68
2022/03/20 10:59:42;;;;;;;70.13;30.88;;;;;;;-148.23;100.00;61223.13;4962243;28;20038;-68
2022/03/20 11:02:24;;;;;;;58.00;30.23;;;;;;;-148.23;100.00;61223.13;4962500;28;20030;-70
2022/03/20 11:04:50;;;;;;;67.10;33.42;;;;;;;-148.23;100.00;61223.13;4962732;28;20037;-69
2022/03/20 11:07:19;;;;;;;66.43;35.92;;;;;;;-148.23;100.00;61223.13;4950473;28;20035;-69
2022/03/20 11:09:48;;;;;;;64.85;34.47;;;;;;;-148.23;100.00;61223.13;4977790;28;20035;-69
2022/03/20 11:12:18;;;;;;;67.38;35.88;;;;;;;-148.23;100.00;61223.13;4960645;28;20395;-69
2022/03/20 11:14:44;;;;;;;66.85;35.22;;;;;;;-148.23;100.00;61223.13;4977527;28;20082;-68
2022/03/20 11:17:13;;;;;;;60.35;32.05;;;;;;;-148.23;100.00;61223.13;4962266;28;20062;-69
2022/03/20 11:19:43;;;;;;;61.63;31.90;;;;;;;-148.23;100.00;61223.13;4975786;28;20084;-69
2022/03/20 11:22:09;;;;;;;72.88;38.95;;;;;;;-148.23;100.00;61223.13;4961930;28;20031;-69
2022/03/20 11:24:36;;;;;;;73.47;33.80;;;;;;;-148.23;100.00;61223.13;4957240;28;20366;-70
2022/03/20 11:27:03;;;;;;;66.63;31.48;;;;;;;-148.23;100.00;61223.13;4958221;28;20122;-68